sensor_id;sensor_type;location;lat;lon;timestamp;temperature;humidity
13482;DHT22;6813;60.352;15.746;2022-12-18T00:01:41;3.70;99.90
13482;DHT22;6813;60.352;15.746;2022-12-18T00:04:11;3.70;99.90
13482;DHT22;6813;60.352;15.746;2022-12-18T00:06:40;3.60;99.90
13482;DHT22;6813;60.352;15.746;2022-12-18T00:09:06;3.60;99.90
13482;DHT22;6813;60.352;15.746;2022-12-18T00:11:31;3.50;99.90
13482;DHT22;6813;60.352;15.746;2022-12-18T00:13:59;3.50;99.90
13482;DHT22;6813;60.352;15.746;2022-12-18T00:16:26;3.50;99.90
13482;DHT22;6813;60.352;15.746;2022-12-18T00:18:54;3.50;99.90
13482;DHT22;6813;60.352;15.746;2022-12-18T00:21:21;3.20;99.90
13482;DHT22;6813;60.352;15.746;2022-12-18T00:23:47;3.00;99.90
13482;DHT22;6813;60.352;15.746;2022-12-18T00:26:18;2.90;99.90
13482;DHT22;6813;60.352;15.746;2022-12-18T00:28:45;2.80;99.90
13482;DHT22;6813;60.352;15.746;2022-12-18T00:31:17;2.70;99.90
13482;DHT22;6813;60.352;15.746;2022-12-18T00:33:44;2.80;99.90
13482;DHT22;6813;60.352;15.746;2022-12-18T00:36:11;3.00;99.90
13482;DHT22;6813;60.352;15.746;2022-12-18T00:38:37;2.70;99.90
13482;DHT22;6813;60.352;15.746;2022-12-18T00:41:04;2.70;99.90
13482;DHT22;6813;60.352;15.746;2022-12-18T00:43:30;2.60;99.90
13482;DHT22;6813;60.352;15.746;2022-12-18T00:45:59;2.60;99.90
13482;DHT22;6813;60.352;15.746;2022-12-18T00:48:24;2.50;99.90
13482;DHT22;6813;60.352;15.746;2022-12-18T00:50:50;2.60;99.90
13482;DHT22;6813;60.352;15.746;2022-12-18T00:53:17;2.60;99.90
13482;DHT22;6813;60.352;15.746;2022-12-18T00:55:43;2.60;99.90
13482;DHT22;6813;60.352;15.746;2022-12-18T00:58:13;2.60;99.90
13482;DHT22;6813;60.352;15.746;2022-12-18T01:00:39;2.70;99.90
13482;DHT22;6813;60.352;15.746;2022-12-18T01:03:05;2.60;99.90
13482;DHT22;6813;60.352;15.746;2022-12-18T01:05:31;2.70;99.90
13482;DHT22;6813;60.352;15.746;2022-12-18T01:07:57;2.80;99.90
13482;DHT22;6813;60.352;15.746;2022-12-18T01:10:23;2.80;99.90
13482;DHT22;6813;60.352;15.746;2022-12-18T01:12:49;2.70;99.90
13482;DHT22;6813;60.352;15.746;2022-12-18T01:15:16;2.70;99.90
13482;DHT22;6813;60.352;15.746;2022-12-18T01:17:42;2.70;99.90
13482;DHT22;6813;60.352;15.746;2022-12-18T01:20:10;2.90;99.90
13482;DHT22;6813;60.352;15.746;2022-12-18T01:22:36;3.00;99.90
13482;DHT22;6813;60.352;15.746;2022-12-18T01:25:02;3.00;99.90
13482;DHT22;6813;60.352;15.746;2022-12-18T01:27:28;2.80;99.90
13482;DHT22;6813;60.352;15.746;2022-12-18T01:29:54;2.80;99.90
13482;DHT22;6813;60.352;15.746;2022-12-18T01:32:20;2.60;99.90
13482;DHT22;6813;60.352;15.746;2022-12-18T01:34:46;2.70;99.90
13482;DHT22;6813;60.352;15.746;2022-12-18T01:37:11;2.70;99.90
13482;DHT22;6813;60.352;15.746;2022-12-18T01:39:37;2.60;99.90
13482;DHT22;6813;60.352;15.746;2022-12-18T01:42:03;2.60;99.90
13482;DHT22;6813;60.352;15.746;2022-12-18T01:50:11;2.50;99.90
13482;DHT22;6813;60.352;15.746;2022-12-18T01:52:41;2.60;99.90
13482;DHT22;6813;60.352;15.746;2022-12-18T01:55:10;2.60;99.90
13482;DHT22;6813;60.352;15.746;2022-12-18T01:57:37;2.80;99.90
13482;DHT22;6813;60.352;15.746;2022-12-18T02:00:13;2.90;99.90
13482;DHT22;6813;60.352;15.746;2022-12-18T02:02:40;3.00;99.90
13482;DHT22;6813;60.352;15.746;2022-12-18T02:05:07;3.10;99.90
13482;DHT22;6813;60.352;15.746;2022-12-18T02:10:24;3.00;99.90
13482;DHT22;6813;60.352;15.746;2022-12-18T02:15:38;3.10;99.90
13482;DHT22;6813;60.352;15.746;2022-12-18T02:18:13;3.20;99.90
13482;DHT22;6813;60.352;15.746;2022-12-18T02:26:06;3.30;99.90
13482;DHT22;6813;60.352;15.746;2022-12-18T02:28:58;3.40;99.90
13482;DHT22;6813;60.352;15.746;2022-12-18T02:31:25;3.40;99.90
13482;DHT22;6813;60.352;15.746;2022-12-18T02:33:56;3.40;99.90
13482;DHT22;6813;60.352;15.746;2022-12-18T02:36:24;3.60;99.90
13482;DHT22;6813;60.352;15.746;2022-12-18T02:38:52;3.40;99.90
13482;DHT22;6813;60.352;15.746;2022-12-18T02:41:19;3.20;99.90
13482;DHT22;6813;60.352;15.746;2022-12-18T02:43:53;3.10;99.90
13482;DHT22;6813;60.352;15.746;2022-12-18T02:48:53;3.30;99.90
13482;DHT22;6813;60.352;15.746;2022-12-18T02:51:37;3.20;99.90
13482;DHT22;6813;60.352;15.746;2022-12-18T02:54:10;3.30;99.90
13482;DHT22;6813;60.352;15.746;2022-12-18T02:56:44;3.50;99.90
13482;DHT22;6813;60.352;15.746;2022-12-18T02:59:23;3.40;99.90
13482;DHT22;6813;60.352;15.746;2022-12-18T03:02:21;3.40;99.90
13482;DHT22;6813;60.352;15.746;2022-12-18T03:05:10;3.60;99.90
13482;DHT22;6813;60.352;15.746;2022-12-18T03:07:48;3.70;99.90
13482;DHT22;6813;60.352;15.746;2022-12-18T03:10:20;3.60;99.90
13482;DHT22;6813;60.352;15.746;2022-12-18T03:12:54;3.50;99.90
13482;DHT22;6813;60.352;15.746;2022-12-18T03:15:29;3.40;99.90
13482;DHT22;6813;60.352;15.746;2022-12-18T03:18:01;2.90;99.90
13482;DHT22;6813;60.352;15.746;2022-12-18T03:20:30;2.70;99.90
13482;DHT22;6813;60.352;15.746;2022-12-18T03:23:07;2.90;99.90
13482;DHT22;6813;60.352;15.746;2022-12-18T03:25:35;2.80;99.90
13482;DHT22;6813;60.352;15.746;2022-12-18T03:28:06;2.70;99.90
13482;DHT22;6813;60.352;15.746;2022-12-18T03:30:36;2.90;99.90
13482;DHT22;6813;60.352;15.746;2022-12-18T03:33:15;2.60;99.90
13482;DHT22;6813;60.352;15.746;2022-12-18T03:35:43;2.60;99.90
13482;DHT22;6813;60.352;15.746;2022-12-18T03:38:10;2.60;99.90
13482;DHT22;6813;60.352;15.746;2022-12-18T03:41:01;2.80;99.90
13482;DHT22;6813;60.352;15.746;2022-12-18T03:46:11;2.90;99.90
13482;DHT22;6813;60.352;15.746;2022-12-18T03:48:44;2.90;99.90
13482;DHT22;6813;60.352;15.746;2022-12-18T03:51:20;2.80;99.90
13482;DHT22;6813;60.352;15.746;2022-12-18T03:53:58;2.90;99.90
13482;DHT22;6813;60.352;15.746;2022-12-18T03:56:26;2.90;99.90
13482;DHT22;6813;60.352;15.746;2022-12-18T03:58:54;2.90;99.90
13482;DHT22;6813;60.352;15.746;2022-12-18T04:01:25;2.80;99.90
13482;DHT22;6813;60.352;15.746;2022-12-18T04:03:53;2.90;99.90
13482;DHT22;6813;60.352;15.746;2022-12-18T04:06:19;2.90;99.90
13482;DHT22;6813;60.352;15.746;2022-12-18T04:08:45;2.70;99.90
13482;DHT22;6813;60.352;15.746;2022-12-18T04:11:12;2.60;99.90
13482;DHT22;6813;60.352;15.746;2022-12-18T04:13:38;2.40;99.90
13482;DHT22;6813;60.352;15.746;2022-12-18T04:16:04;2.60;99.90
13482;DHT22;6813;60.352;15.746;2022-12-18T04:18:30;2.60;99.90
13482;DHT22;6813;60.352;15.746;2022-12-18T04:20:56;2.60;99.90
13482;DHT22;6813;60.352;15.746;2022-12-18T04:23:22;2.80;99.90
13482;DHT22;6813;60.352;15.746;2022-12-18T04:25:48;2.60;99.90
13482;DHT22;6813;60.352;15.746;2022-12-18T04:28:13;2.60;99.90
13482;DHT22;6813;60.352;15.746;2022-12-18T04:30:39;2.60;99.90
13482;DHT22;6813;60.352;15.746;2022-12-18T04:33:12;2.50;99.90
13482;DHT22;6813;60.352;15.746;2022-12-18T04:35:39;2.50;99.90
13482;DHT22;6813;60.352;15.746;2022-12-18T04:38:06;2.50;99.90
13482;DHT22;6813;60.352;15.746;2022-12-18T04:40:37;2.70;99.90
13482;DHT22;6813;60.352;15.746;2022-12-18T04:43:03;2.50;99.90
13482;DHT22;6813;60.352;15.746;2022-12-18T04:45:30;2.50;99.90
13482;DHT22;6813;60.352;15.746;2022-12-18T04:47:57;2.50;99.90
13482;DHT22;6813;60.352;15.746;2022-12-18T04:50:23;2.50;99.90
13482;DHT22;6813;60.352;15.746;2022-12-18T04:52:49;2.40;99.90
13482;DHT22;6813;60.352;15.746;2022-12-18T04:55:14;2.70;99.90
13482;DHT22;6813;60.352;15.746;2022-12-18T04:57:40;2.80;99.90
13482;DHT22;6813;60.352;15.746;2022-12-18T05:00:06;2.80;99.90
13482;DHT22;6813;60.352;15.746;2022-12-18T05:02:32;2.60;99.90
13482;DHT22;6813;60.352;15.746;2022-12-18T05:04:58;2.60;99.90
13482;DHT22;6813;60.352;15.746;2022-12-18T05:07:24;2.90;99.90
13482;DHT22;6813;60.352;15.746;2022-12-18T05:09:49;2.90;99.90
13482;DHT22;6813;60.352;15.746;2022-12-18T05:12:15;2.70;99.90
13482;DHT22;6813;60.352;15.746;2022-12-18T05:14:41;2.80;99.90
13482;DHT22;6813;60.352;15.746;2022-12-18T05:17:07;3.00;99.90
13482;DHT22;6813;60.352;15.746;2022-12-18T05:19:32;2.90;99.90
13482;DHT22;6813;60.352;15.746;2022-12-18T05:21:58;3.00;99.90
13482;DHT22;6813;60.352;15.746;2022-12-18T05:24:24;3.10;99.90
13482;DHT22;6813;60.352;15.746;2022-12-18T05:26:49;3.20;99.90
13482;DHT22;6813;60.352;15.746;2022-12-18T05:29:15;3.20;99.90
13482;DHT22;6813;60.352;15.746;2022-12-18T05:31:41;3.20;99.90
13482;DHT22;6813;60.352;15.746;2022-12-18T05:34:07;3.30;99.90
13482;DHT22;6813;60.352;15.746;2022-12-18T05:36:32;3.00;99.90
13482;DHT22;6813;60.352;15.746;2022-12-18T05:38:58;2.70;99.90
13482;DHT22;6813;60.352;15.746;2022-12-18T05:41:25;2.80;99.90
13482;DHT22;6813;60.352;15.746;2022-12-18T05:43:51;2.70;99.90
13482;DHT22;6813;60.352;15.746;2022-12-18T05:46:17;2.90;99.90
13482;DHT22;6813;60.352;15.746;2022-12-18T05:48:44;3.10;99.90
13482;DHT22;6813;60.352;15.746;2022-12-18T05:51:14;3.00;99.90
13482;DHT22;6813;60.352;15.746;2022-12-18T05:53:41;3.10;99.90
13482;DHT22;6813;60.352;15.746;2022-12-18T05:56:10;3.20;99.90
13482;DHT22;6813;60.352;15.746;2022-12-18T05:58:36;3.40;99.90
13482;DHT22;6813;60.352;15.746;2022-12-18T06:01:15;3.40;99.90
13482;DHT22;6813;60.352;15.746;2022-12-18T06:03:42;3.20;99.90
13482;DHT22;6813;60.352;15.746;2022-12-18T06:08:40;3.10;99.90
13482;DHT22;6813;60.352;15.746;2022-12-18T06:11:06;3.10;99.90
13482;DHT22;6813;60.352;15.746;2022-12-18T06:13:32;3.20;99.90
13482;DHT22;6813;60.352;15.746;2022-12-18T06:15:59;3.30;99.90
13482;DHT22;6813;60.352;15.746;2022-12-18T06:18:26;3.40;99.90
13482;DHT22;6813;60.352;15.746;2022-12-18T06:20:56;3.60;99.90
13482;DHT22;6813;60.352;15.746;2022-12-18T06:23:22;3.60;99.90
13482;DHT22;6813;60.352;15.746;2022-12-18T06:25:48;3.60;99.90
13482;DHT22;6813;60.352;15.746;2022-12-18T06:28:13;3.60;99.90
13482;DHT22;6813;60.352;15.746;2022-12-18T06:30:39;3.60;99.90
13482;DHT22;6813;60.352;15.746;2022-12-18T06:33:05;3.70;99.90
13482;DHT22;6813;60.352;15.746;2022-12-18T06:35:32;3.60;99.90
13482;DHT22;6813;60.352;15.746;2022-12-18T06:37:57;3.60;99.90
13482;DHT22;6813;60.352;15.746;2022-12-18T06:40:23;3.70;99.90
13482;DHT22;6813;60.352;15.746;2022-12-18T06:42:49;3.70;99.90
13482;DHT22;6813;60.352;15.746;2022-12-18T06:45:15;3.80;99.90
13482;DHT22;6813;60.352;15.746;2022-12-18T06:47:40;3.80;99.90
13482;DHT22;6813;60.352;15.746;2022-12-18T06:50:06;3.90;99.90
13482;DHT22;6813;60.352;15.746;2022-12-18T06:52:33;3.90;99.90
13482;DHT22;6813;60.352;15.746;2022-12-18T06:54:59;3.90;99.90
13482;DHT22;6813;60.352;15.746;2022-12-18T06:57:25;3.80;99.90
13482;DHT22;6813;60.352;15.746;2022-12-18T06:59:50;3.90;99.90
13482;DHT22;6813;60.352;15.746;2022-12-18T07:02:16;3.80;99.90
13482;DHT22;6813;60.352;15.746;2022-12-18T07:04:42;3.70;99.90
13482;DHT22;6813;60.352;15.746;2022-12-18T07:07:08;3.80;99.90
13482;DHT22;6813;60.352;15.746;2022-12-18T07:09:34;3.80;99.90
13482;DHT22;6813;60.352;15.746;2022-12-18T07:11:59;3.90;99.90
13482;DHT22;6813;60.352;15.746;2022-12-18T07:14:25;3.80;99.90
13482;DHT22;6813;60.352;15.746;2022-12-18T07:16:51;3.90;99.90
13482;DHT22;6813;60.352;15.746;2022-12-18T07:19:16;4.00;99.90
13482;DHT22;6813;60.352;15.746;2022-12-18T07:21:42;4.00;99.90
13482;DHT22;6813;60.352;15.746;2022-12-18T07:24:08;4.00;99.90
13482;DHT22;6813;60.352;15.746;2022-12-18T07:26:33;4.00;99.90
13482;DHT22;6813;60.352;15.746;2022-12-18T07:28:59;4.00;99.90
13482;DHT22;6813;60.352;15.746;2022-12-18T07:31:25;4.00;99.90
13482;DHT22;6813;60.352;15.746;2022-12-18T07:33:52;4.00;99.90
13482;DHT22;6813;60.352;15.746;2022-12-18T07:36:18;4.00;99.90
13482;DHT22;6813;60.352;15.746;2022-12-18T07:38:47;4.00;99.90
13482;DHT22;6813;60.352;15.746;2022-12-18T07:41:13;4.00;99.90
13482;DHT22;6813;60.352;15.746;2022-12-18T07:43:40;4.00;99.90
13482;DHT22;6813;60.352;15.746;2022-12-18T07:46:07;4.00;99.90
13482;DHT22;6813;60.352;15.746;2022-12-18T07:48:33;4.10;99.90
13482;DHT22;6813;60.352;15.746;2022-12-18T07:51:04;4.00;99.90
13482;DHT22;6813;60.352;15.746;2022-12-18T07:53:32;4.10;99.90
13482;DHT22;6813;60.352;15.746;2022-12-18T07:55:59;4.10;99.90
13482;DHT22;6813;60.352;15.746;2022-12-18T07:58:26;4.10;99.90
13482;DHT22;6813;60.352;15.746;2022-12-18T08:00:52;4.10;99.90
13482;DHT22;6813;60.352;15.746;2022-12-18T08:03:18;4.10;99.90
13482;DHT22;6813;60.352;15.746;2022-12-18T08:05:44;4.10;99.90
13482;DHT22;6813;60.352;15.746;2022-12-18T08:08:09;4.10;99.90
13482;DHT22;6813;60.352;15.746;2022-12-18T08:10:35;4.10;99.90
13482;DHT22;6813;60.352;15.746;2022-12-18T08:13:01;4.00;99.90
13482;DHT22;6813;60.352;15.746;2022-12-18T08:15:26;4.00;99.90
13482;DHT22;6813;60.352;15.746;2022-12-18T08:17:52;3.90;99.90
13482;DHT22;6813;60.352;15.746;2022-12-18T08:20:21;3.90;99.90
13482;DHT22;6813;60.352;15.746;2022-12-18T08:22:47;3.90;99.90
13482;DHT22;6813;60.352;15.746;2022-12-18T08:25:12;3.90;99.90
13482;DHT22;6813;60.352;15.746;2022-12-18T08:27:38;4.00;99.90
13482;DHT22;6813;60.352;15.746;2022-12-18T08:30:04;4.00;99.90
13482;DHT22;6813;60.352;15.746;2022-12-18T08:32:30;3.90;99.90
13482;DHT22;6813;60.352;15.746;2022-12-18T08:34:58;3.90;99.90
13482;DHT22;6813;60.352;15.746;2022-12-18T08:37:24;4.00;99.90
13482;DHT22;6813;60.352;15.746;2022-12-18T08:39:49;3.90;99.90
13482;DHT22;6813;60.352;15.746;2022-12-18T08:42:15;3.90;99.90
13482;DHT22;6813;60.352;15.746;2022-12-18T08:44:59;3.90;99.90
13482;DHT22;6813;60.352;15.746;2022-12-18T08:47:25;3.90;99.90
13482;DHT22;6813;60.352;15.746;2022-12-18T08:49:51;3.90;99.90
13482;DHT22;6813;60.352;15.746;2022-12-18T08:52:17;3.90;99.90
13482;DHT22;6813;60.352;15.746;2022-12-18T08:54:42;3.90;99.90
13482;DHT22;6813;60.352;15.746;2022-12-18T08:57:08;4.00;99.90
13482;DHT22;6813;60.352;15.746;2022-12-18T08:59:34;3.90;99.90
13482;DHT22;6813;60.352;15.746;2022-12-18T09:01:59;4.00;99.90
13482;DHT22;6813;60.352;15.746;2022-12-18T09:04:25;4.00;99.90
13482;DHT22;6813;60.352;15.746;2022-12-18T09:06:51;4.00;99.90
13482;DHT22;6813;60.352;15.746;2022-12-18T09:09:16;4.10;99.90
13482;DHT22;6813;60.352;15.746;2022-12-18T09:11:42;4.10;99.90
13482;DHT22;6813;60.352;15.746;2022-12-18T09:14:09;4.00;99.90
13482;DHT22;6813;60.352;15.746;2022-12-18T09:16:35;4.10;99.90
13482;DHT22;6813;60.352;15.746;2022-12-18T09:19:02;4.00;99.90
13482;DHT22;6813;60.352;15.746;2022-12-18T09:21:31;4.10;99.90
13482;DHT22;6813;60.352;15.746;2022-12-18T09:23:57;4.10;99.90
13482;DHT22;6813;60.352;15.746;2022-12-18T09:26:25;4.20;99.90
13482;DHT22;6813;60.352;15.746;2022-12-18T09:28:51;4.20;99.90
13482;DHT22;6813;60.352;15.746;2022-12-18T09:31:20;4.30;99.90
13482;DHT22;6813;60.352;15.746;2022-12-18T09:33:46;4.30;99.90
13482;DHT22;6813;60.352;15.746;2022-12-18T09:36:14;4.40;99.90
13482;DHT22;6813;60.352;15.746;2022-12-18T09:38:40;4.30;99.90
13482;DHT22;6813;60.352;15.746;2022-12-18T09:43:50;4.20;99.90
13482;DHT22;6813;60.352;15.746;2022-12-18T09:46:39;4.20;99.90
13482;DHT22;6813;60.352;15.746;2022-12-18T09:49:12;4.20;99.90
13482;DHT22;6813;60.352;15.746;2022-12-18T09:51:53;4.30;99.90
13482;DHT22;6813;60.352;15.746;2022-12-18T09:54:26;4.30;99.90
13482;DHT22;6813;60.352;15.746;2022-12-18T09:56:54;4.30;99.90
13482;DHT22;6813;60.352;15.746;2022-12-18T10:01:51;4.30;99.90
13482;DHT22;6813;60.352;15.746;2022-12-18T10:04:17;4.30;99.90
13482;DHT22;6813;60.352;15.746;2022-12-18T10:07:46;4.40;99.90
13482;DHT22;6813;60.352;15.746;2022-12-18T10:10:01;4.40;99.90
13482;DHT22;6813;60.352;15.746;2022-12-18T10:15:30;4.40;99.90
13482;DHT22;6813;60.352;15.746;2022-12-18T10:18:00;4.40;99.90
13482;DHT22;6813;60.352;15.746;2022-12-18T10:20:39;4.40;99.90
13482;DHT22;6813;60.352;15.746;2022-12-18T10:26:05;4.40;99.90
13482;DHT22;6813;60.352;15.746;2022-12-18T10:28:33;4.40;99.90
13482;DHT22;6813;60.352;15.746;2022-12-18T10:31:01;4.40;99.90
13482;DHT22;6813;60.352;15.746;2022-12-18T10:33:31;4.50;99.90
13482;DHT22;6813;60.352;15.746;2022-12-18T10:35:58;4.60;99.90
13482;DHT22;6813;60.352;15.746;2022-12-18T10:38:28;4.60;99.90
13482;DHT22;6813;60.352;15.746;2022-12-18T10:41:05;4.70;99.90
13482;DHT22;6813;60.352;15.746;2022-12-18T10:43:33;4.70;99.90
13482;DHT22;6813;60.352;15.746;2022-12-18T10:46:20;4.60;99.90
13482;DHT22;6813;60.352;15.746;2022-12-18T10:51:29;4.70;99.90
13482;DHT22;6813;60.352;15.746;2022-12-18T10:54:05;4.60;99.90
13482;DHT22;6813;60.352;15.746;2022-12-18T10:56:33;4.60;99.90
13482;DHT22;6813;60.352;15.746;2022-12-18T10:59:08;4.70;99.90
13482;DHT22;6813;60.352;15.746;2022-12-18T11:04:17;4.80;99.90
13482;DHT22;6813;60.352;15.746;2022-12-18T11:07:12;4.80;99.90
13482;DHT22;6813;60.352;15.746;2022-12-18T11:09:39;4.70;99.90
13482;DHT22;6813;60.352;15.746;2022-12-18T11:12:13;4.80;99.90
13482;DHT22;6813;60.352;15.746;2022-12-18T11:17:25;4.70;99.90
13482;DHT22;6813;60.352;15.746;2022-12-18T11:19:55;4.70;99.90
13482;DHT22;6813;60.352;15.746;2022-12-18T11:22:28;4.70;99.90
13482;DHT22;6813;60.352;15.746;2022-12-18T11:25:00;4.70;99.90
13482;DHT22;6813;60.352;15.746;2022-12-18T11:27:26;4.70;99.90
13482;DHT22;6813;60.352;15.746;2022-12-18T11:30:20;4.60;99.90
13482;DHT22;6813;60.352;15.746;2022-12-18T11:33:09;4.70;99.90
13482;DHT22;6813;60.352;15.746;2022-12-18T11:35:56;4.70;99.90
13482;DHT22;6813;60.352;15.746;2022-12-18T11:38:40;4.70;99.90
13482;DHT22;6813;60.352;15.746;2022-12-18T11:41:25;4.70;99.90
13482;DHT22;6813;60.352;15.746;2022-12-18T11:44:19;4.70;99.90
13482;DHT22;6813;60.352;15.746;2022-12-18T11:49:55;4.80;99.90
13482;DHT22;6813;60.352;15.746;2022-12-18T11:52:37;4.70;99.90
13482;DHT22;6813;60.352;15.746;2022-12-18T11:55:15;4.60;99.90
13482;DHT22;6813;60.352;15.746;2022-12-18T12:00:46;4.60;99.90
13482;DHT22;6813;60.352;15.746;2022-12-18T12:03:27;4.50;99.90
13482;DHT22;6813;60.352;15.746;2022-12-18T12:20:42;4.50;99.90
13482;DHT22;6813;60.352;15.746;2022-12-18T12:22:45;4.50;99.90
13482;DHT22;6813;60.352;15.746;2022-12-18T12:25:35;4.30;99.90
13482;DHT22;6813;60.352;15.746;2022-12-18T12:39:29;4.40;99.90
13482;DHT22;6813;60.352;15.746;2022-12-18T12:41:56;4.50;99.90
13482;DHT22;6813;60.352;15.746;2022-12-18T12:44:47;4.50;99.90
13482;DHT22;6813;60.352;15.746;2022-12-18T12:47:28;4.30;99.90
13482;DHT22;6813;60.352;15.746;2022-12-18T12:49:57;4.30;99.90
13482;DHT22;6813;60.352;15.746;2022-12-18T12:52:36;4.30;99.90
13482;DHT22;6813;60.352;15.746;2022-12-18T12:55:05;4.20;99.90
13482;DHT22;6813;60.352;15.746;2022-12-18T12:57:46;4.10;99.90
13482;DHT22;6813;60.352;15.746;2022-12-18T13:00:18;4.00;99.90
13482;DHT22;6813;60.352;15.746;2022-12-18T13:10:31;4.20;99.90
13482;DHT22;6813;60.352;15.746;2022-12-18T13:13:05;4.10;99.90
13482;DHT22;6813;60.352;15.746;2022-12-18T13:18:18;4.00;99.90
13482;DHT22;6813;60.352;15.746;2022-12-18T13:25:51;4.20;99.90
13482;DHT22;6813;60.352;15.746;2022-12-18T13:28:49;4.30;99.90
13482;DHT22;6813;60.352;15.746;2022-12-18T13:31:09;4.20;99.90
13482;DHT22;6813;60.352;15.746;2022-12-18T13:36:12;4.20;99.90
13482;DHT22;6813;60.352;15.746;2022-12-18T13:38:39;4.00;99.90
13482;DHT22;6813;60.352;15.746;2022-12-18T13:43:38;3.90;99.90
13482;DHT22;6813;60.352;15.746;2022-12-18T13:48:34;4.10;99.90
13482;DHT22;6813;60.352;15.746;2022-12-18T13:51:09;4.10;99.90
13482;DHT22;6813;60.352;15.746;2022-12-18T13:53:42;4.00;99.90
13482;DHT22;6813;60.352;15.746;2022-12-18T13:56:08;3.90;99.90
13482;DHT22;6813;60.352;15.746;2022-12-18T13:58:34;3.90;99.90
13482;DHT22;6813;60.352;15.746;2022-12-18T14:01:00;3.80;99.90
13482;DHT22;6813;60.352;15.746;2022-12-18T14:03:29;3.80;99.90
13482;DHT22;6813;60.352;15.746;2022-12-18T14:05:59;3.80;99.90
13482;DHT22;6813;60.352;15.746;2022-12-18T14:08:30;3.80;99.90
13482;DHT22;6813;60.352;15.746;2022-12-18T14:10:57;3.80;99.90
13482;DHT22;6813;60.352;15.746;2022-12-18T14:13:28;3.80;99.90
13482;DHT22;6813;60.352;15.746;2022-12-18T14:15:56;3.80;99.90
13482;DHT22;6813;60.352;15.746;2022-12-18T14:20:55;3.90;99.90
13482;DHT22;6813;60.352;15.746;2022-12-18T14:23:40;3.80;99.90
13482;DHT22;6813;60.352;15.746;2022-12-18T14:26:26;3.70;99.90
13482;DHT22;6813;60.352;15.746;2022-12-18T14:28:55;3.60;99.90
13482;DHT22;6813;60.352;15.746;2022-12-18T14:31:26;3.60;99.90
13482;DHT22;6813;60.352;15.746;2022-12-18T14:33:52;3.60;99.90
13482;DHT22;6813;60.352;15.746;2022-12-18T14:36:24;3.60;99.90
13482;DHT22;6813;60.352;15.746;2022-12-18T14:38:55;3.60;99.90
13482;DHT22;6813;60.352;15.746;2022-12-18T14:41:21;3.70;99.90
13482;DHT22;6813;60.352;15.746;2022-12-18T14:43:49;3.50;99.90
13482;DHT22;6813;60.352;15.746;2022-12-18T14:46:35;3.50;99.90
13482;DHT22;6813;60.352;15.746;2022-12-18T14:51:52;3.40;99.90
13482;DHT22;6813;60.352;15.746;2022-12-18T14:54:20;3.30;99.90
13482;DHT22;6813;60.352;15.746;2022-12-18T14:56:57;3.40;99.90
13482;DHT22;6813;60.352;15.746;2022-12-18T14:59:25;3.30;99.90
13482;DHT22;6813;60.352;15.746;2022-12-18T15:02:01;3.20;99.90
13482;DHT22;6813;60.352;15.746;2022-12-18T15:04:38;3.20;99.90
13482;DHT22;6813;60.352;15.746;2022-12-18T15:07:16;3.10;99.90
13482;DHT22;6813;60.352;15.746;2022-12-18T15:12:34;3.20;99.90
13482;DHT22;6813;60.352;15.746;2022-12-18T15:15:00;3.30;99.90
13482;DHT22;6813;60.352;15.746;2022-12-18T15:17:26;3.30;99.90
13482;DHT22;6813;60.352;15.746;2022-12-18T15:19:58;3.40;99.90
13482;DHT22;6813;60.352;15.746;2022-12-18T15:22:30;3.50;99.90
13482;DHT22;6813;60.352;15.746;2022-12-18T15:24:59;3.40;99.90
13482;DHT22;6813;60.352;15.746;2022-12-18T15:27:29;3.30;99.90
13482;DHT22;6813;60.352;15.746;2022-12-18T15:32:39;3.30;99.90
13482;DHT22;6813;60.352;15.746;2022-12-18T15:37:40;3.10;99.90
13482;DHT22;6813;60.352;15.746;2022-12-18T15:40:11;3.20;99.90
13482;DHT22;6813;60.352;15.746;2022-12-18T15:42:37;3.20;99.90
13482;DHT22;6813;60.352;15.746;2022-12-18T15:45:21;3.30;99.90
13482;DHT22;6813;60.352;15.746;2022-12-18T15:47:47;3.30;99.90
13482;DHT22;6813;60.352;15.746;2022-12-18T15:50:13;3.40;99.90
13482;DHT22;6813;60.352;15.746;2022-12-18T15:52:46;3.30;99.90
13482;DHT22;6813;60.352;15.746;2022-12-18T15:55:18;3.30;99.90
13482;DHT22;6813;60.352;15.746;2022-12-18T15:58:04;3.20;99.90
13482;DHT22;6813;60.352;15.746;2022-12-18T16:00:29;3.30;99.90
13482;DHT22;6813;60.352;15.746;2022-12-18T16:02:55;3.50;99.90
13482;DHT22;6813;60.352;15.746;2022-12-18T16:05:22;3.40;99.90
13482;DHT22;6813;60.352;15.746;2022-12-18T16:07:48;3.50;99.90
13482;DHT22;6813;60.352;15.746;2022-12-18T16:10:14;3.30;99.90
13482;DHT22;6813;60.352;15.746;2022-12-18T16:12:41;3.10;99.90
13482;DHT22;6813;60.352;15.746;2022-12-18T16:15:08;3.20;99.90
13482;DHT22;6813;60.352;15.746;2022-12-18T16:17:35;3.20;99.90
13482;DHT22;6813;60.352;15.746;2022-12-18T16:20:01;3.10;99.90
13482;DHT22;6813;60.352;15.746;2022-12-18T16:22:29;3.10;99.90
13482;DHT22;6813;60.352;15.746;2022-12-18T16:24:56;3.10;99.90
13482;DHT22;6813;60.352;15.746;2022-12-18T16:27:22;3.20;99.90
13482;DHT22;6813;60.352;15.746;2022-12-18T16:29:48;3.10;99.90
13482;DHT22;6813;60.352;15.746;2022-12-18T16:32:16;3.10;99.90
13482;DHT22;6813;60.352;15.746;2022-12-18T16:34:42;3.10;99.90
13482;DHT22;6813;60.352;15.746;2022-12-18T16:37:11;3.20;99.90
13482;DHT22;6813;60.352;15.746;2022-12-18T16:39:38;3.30;99.90
13482;DHT22;6813;60.352;15.746;2022-12-18T16:42:23;3.50;99.90
13482;DHT22;6813;60.352;15.746;2022-12-18T16:44:49;3.40;99.90
13482;DHT22;6813;60.352;15.746;2022-12-18T16:47:16;3.40;99.90
13482;DHT22;6813;60.352;15.746;2022-12-18T16:49:42;3.30;99.90
13482;DHT22;6813;60.352;15.746;2022-12-18T16:52:10;3.20;99.90
13482;DHT22;6813;60.352;15.746;2022-12-18T16:54:35;3.20;99.90
13482;DHT22;6813;60.352;15.746;2022-12-18T16:57:02;2.90;99.90
13482;DHT22;6813;60.352;15.746;2022-12-18T16:59:28;3.00;99.90
13482;DHT22;6813;60.352;15.746;2022-12-18T17:01:55;2.80;99.90
13482;DHT22;6813;60.352;15.746;2022-12-18T17:04:21;2.70;99.90
13482;DHT22;6813;60.352;15.746;2022-12-18T17:06:47;2.70;99.90
13482;DHT22;6813;60.352;15.746;2022-12-18T17:09:20;2.60;99.90
13482;DHT22;6813;60.352;15.746;2022-12-18T17:11:49;2.80;99.90
13482;DHT22;6813;60.352;15.746;2022-12-18T17:14:18;2.80;99.90
13482;DHT22;6813;60.352;15.746;2022-12-18T17:16:45;2.90;99.90
13482;DHT22;6813;60.352;15.746;2022-12-18T17:19:11;2.70;99.90
13482;DHT22;6813;60.352;15.746;2022-12-18T17:21:38;2.60;99.90
13482;DHT22;6813;60.352;15.746;2022-12-18T17:24:04;2.50;99.90
13482;DHT22;6813;60.352;15.746;2022-12-18T17:26:31;2.40;99.90
13482;DHT22;6813;60.352;15.746;2022-12-18T17:28:57;2.40;99.90
13482;DHT22;6813;60.352;15.746;2022-12-18T17:31:25;2.40;99.90
13482;DHT22;6813;60.352;15.746;2022-12-18T17:33:51;2.40;99.90
13482;DHT22;6813;60.352;15.746;2022-12-18T17:36:18;2.40;99.90
13482;DHT22;6813;60.352;15.746;2022-12-18T17:38:51;2.40;99.90
13482;DHT22;6813;60.352;15.746;2022-12-18T17:41:17;2.30;99.90
13482;DHT22;6813;60.352;15.746;2022-12-18T17:43:42;2.20;99.90
13482;DHT22;6813;60.352;15.746;2022-12-18T17:46:12;2.20;99.90
13482;DHT22;6813;60.352;15.746;2022-12-18T17:48:38;2.20;99.90
13482;DHT22;6813;60.352;15.746;2022-12-18T17:51:06;2.30;99.90